• Join FlightAware (Why Join?)
  • Login
  • US Flag 
12:23PM EDT


 

Airport Tracker/Info


-or-


 

Live Flight TrackerFlight Track Log ✈ N130RC ✈ 27-May-2013 ✈ KHIO - KHIO

Flight Track Log - Related Links

Times and Time Zones

All times are in EDT time to prevent confusion due to time zone crossing. See the N130RC flight status page for this flight to view local times or setup timezone preferences in your user account.

Time Position Orientation Groundspeed Altitude Reporting Facility
EDT Latitude Longitude Course Direction KTS MPH feet Rate Location/Type
03:53PM 45.5292 -122.9447 189° South 84 97 900  Level Seattle Center
03:54PM 45.5106 -122.9492 190° South 85 98 1,500 780 Climbing Seattle Center
03:55PM 45.4861 -122.9561 191° South 88 101 2,400 900 Climbing Seattle Center
03:56PM 45.4594 -122.9636 191° South 85 98 3,400 840 Climbing Seattle Center
03:57PM 45.4647 -123.0014 281° West 111 128 4,100 300 Climbing Seattle Center
03:58PM 45.4764 -123.0492 289° West 127 146 4,100  Level Seattle Center
03:59PM 45.4886 -123.0881 294° West 123 142 4,200 -60 Climbing Seattle Center
04:00PM 45.5067 -123.1317 301° West 136 157 4,000 -60 Descending Seattle Center
04:01PM 45.5444 -123.1525 339° North 146 168 4,100  Climbing Seattle Center
04:02PM 45.5819 -123.1739 338° Northwest 146 168 4,100 -60 Level Seattle Center
04:03PM 45.6186 -123.1956 338° Northwest 144 166 4,000 -60 Descending Seattle Center
04:04PM 45.6519 -123.2158 337° Northwest 137 158 4,000  Level Seattle Center
04:05PM 45.6942 -123.2117 North 135 155 4,100  Climbing Seattle Center
04:06PM 45.7192 -123.1842 38° Northeast 138 159 4,100  Level Seattle Center
04:07PM 45.7158 -123.1411 96° East 130 150 4,100 -120 Level Seattle Center
04:08PM 45.6981 -123.1089 128° Southeast 116 133 3,900 -300 Descending Seattle Center
04:09PM 45.6769 -123.0919 151° Southeast 102 117 3,500 -540 Descending Seattle Center
04:10PM 45.6517 -123.0714 150° Southeast 86 99 2,800 -540 Descending Seattle Center
04:11PM 45.6353 -123.0522 141° Southeast 86 99 2,500 -480 Descending Seattle Center
04:12PM 45.6150 -123.0294 142° Southeast 87 100 1,900 -600 Descending Seattle Center
04:13PM 45.5886 -123.0042 146° Southeast 93 107 1,300 -540 Descending Seattle Center
04:14PM 45.5744 -122.9858 138° Southeast 90 104 900 -420 Descending Seattle Center
04:15PM 45.5539 -122.9636 143° Southeast 89 102 600  Descending Seattle Center
04:15PM 45.5419 -122.9550 153° Southeast 101 116 900 660 Climbing Seattle Center
04:16PM 45.5319 -122.9508 164° South 90 104 1,300 840 Climbing Seattle Center
04:17PM 45.5042 -122.9617 195° South 98 113 2,200 780 Climbing Seattle Center
04:18PM 45.4756 -122.9694 191° South 94 108 3,000 660 Climbing Seattle Center
04:19PM 45.4814 -123.0072 282° West 121 139 3,600 420 Climbing Seattle Center
04:20PM 45.5139 -123.0525 316° Northwest 142 163 4,000 240 Climbing Seattle Center
04:21PM 45.5381 -123.0733 329° Northwest 140 161 4,100  Climbing Seattle Center
04:22PM 45.5833 -123.1203 324° Northwest 156 180 4,000  Descending Seattle Center
04:23PM 45.6153 -123.1500 327° Northwest 153 176 4,100  Climbing Seattle Center
04:24PM 45.6492 -123.1811 327° Northwest 149 171 4,100 -60 Level Seattle Center
04:25PM 45.6867 -123.1725 North 158 182 4,000 -180 Descending Seattle Center
04:26PM 45.6956 -123.1242 75° East 149 171 3,800 -300 Descending Seattle Center
04:27PM 45.6656 -123.0875 139° Southeast 111 128 3,400 -480 Descending Seattle Center
04:28PM 45.6514 -123.0636 130° Southeast 116 133 2,900 -720 Descending Seattle Center
04:29PM 45.6217 -123.0403 151° Southeast 98 113 2,100 -600 Descending Seattle Center
04:30PM 45.6069 -123.0200 136° Southeast 102 117 1,800 -420 Descending Seattle Center
04:31PM 45.5881 -122.9986 142° Southeast 94 108 1,300 -600 Descending Seattle Center
04:32PM 45.5658 -122.9769 146° Southeast 94 108 700 -240 Descending Seattle Center
04:33PM 45.5453 -122.9547 143° Southeast 93 107 900 540 Climbing Seattle Center
04:34PM 45.5186 -122.9542 179° South 99 114 1,800 840 Climbing Seattle Center
04:35PM 45.4950 -122.9631 195° South 92 106 2,700 900 Climbing Seattle Center
04:36PM 45.4617 -122.9658 183° South 97 112 3,700 660 Climbing Seattle Center
04:37PM 45.4636 -122.9958 275° West 142 163 4,100 180 Climbing Seattle Center
04:38PM 45.4953 -123.0353 319° Northwest 153 176 4,100  Level Seattle Center
04:39PM 45.5314 -123.0764 321° Northwest 156 180 4,100  Level Seattle Center
04:40PM 45.5636 -123.1056 328° Northwest 154 177 4,100  Level Seattle Center
04:41PM 45.6000 -123.1383 328° Northwest 153 176 4,100 180 Level Seattle Center
04:42PM 45.6297 -123.1694 324° Northwest 124 143 4,500 360 Climbing Seattle Center
04:43PM 45.6558 -123.2022 319° Northwest 130 150 4,900 240 Climbing Seattle Center
04:44PM 45.6811 -123.2325 320° Northwest 124 143 5,100 60 Climbing Seattle Center
04:45PM 45.7183 -123.2428 349° North 155 178 5,100 -360 Level Seattle Center
04:46PM 45.7406 -123.1914 58° Northeast 151 174 4,400 -780 Descending Seattle Center
04:47PM 45.7172 -123.1344 120° Southeast 144 166 3,600 -420 Descending Seattle Center
04:48PM 45.6925 -123.1072 142° Southeast 129 148 3,600  Level Seattle Center
04:49PM 45.6736 -123.0917 150° Southeast 108 124 3,600 -480 Level Seattle Center
04:50PM 45.6464 -123.0672 148° Southeast 122 140 2,700 -660 Descending Seattle Center
04:51PM 45.6292 -123.0458 139° Southeast 98 113 2,300 -540 Descending Seattle Center
04:52PM 45.6058 -123.0200 142° Southeast 102 117 1,700 -600 Descending Seattle Center
04:53PM 45.5850 -122.9964 142° Southeast 93 107 1,200 -540 Descending Seattle Center
04:54PM 45.5639 -122.9744 144° Southeast 98 113 700 -300 Descending Seattle Center
04:55PM 45.5600 -122.9694 138° Southeast 94 108 700  Level Seattle Center